M/s Stromma Kanal — SJLM — position and weather

sailwx.info

Track history (hours):
 
Tides and Currents Weather Stations Pressure Air Temp Water Temp Dewpoint Dewpoint Depression Visibility Wind Speed Wind Dir Waves Ship Positions

M/s Stromma Kanal

Last reported at 2017-Aug-18 17:57 UTC. Time now 2017-Aug-18 18:04 UTC.
Position N 59°20' E 018°11'.

Length 26 m.

Type: Passenger vessel. MMSI: 265609570.

Date/timePositionNaut miles runAvg speedWind from/ knotsBaromVisibWave heightAir tempDewpointWater temp
2017-Aug-18 17:57N 59°20' E 018°11'3 6.9
2017-Aug-18 17:30N 59°20' E 018°05'0 0.2
2017-Aug-18 16:56N 59°20' E 018°05'0 0.0
2017-Aug-18 16:20N 59°20' E 018°05'0 0.0
2017-Aug-18 15:56N 59°20' E 018°05'2 4.6
2017-Aug-18 15:30N 59°19' E 018°08'4 7.2
2017-Aug-18 15:00N 59°18' E 018°15'2 0.4
2017-Aug-18 08:54N 59°18' E 018°20'3 7.6
2017-Aug-18 08:29N 59°18' E 018°14'3 6.7
2017-Aug-18 08:00N 59°19' E 018°08'2 3.6
2017-Aug-18 07:30N 59°20' E 018°05'0 0.0
2017-Aug-18 07:00N 59°20' E 018°05'0 0.0
2017-Aug-18 06:30N 59°20' E 018°05'0 0.0
2017-Aug-18 05:54N 59°20' E 018°05'0 0.0
2017-Aug-18 05:30N 59°20' E 018°05'0 0.0
2017-Aug-18 05:00N 59°20' E 018°05'0 0.0
2017-Aug-18 04:30N 59°20' E 018°05'0 0.0
2017-Aug-18 04:00N 59°20' E 018°05'0 0.0
2017-Aug-18 03:30N 59°20' E 018°05'0 0.0
2017-Aug-18 03:00N 59°20' E 018°05'0 0.0
2017-Aug-18 02:30N 59°20' E 018°05'0 0.0
2017-Aug-18 02:00N 59°20' E 018°05'0 0.0
2017-Aug-18 01:30N 59°20' E 018°05'0 0.0
2017-Aug-18 01:00N 59°20' E 018°05'0 0.0
2017-Aug-18 00:24N 59°20' E 018°05'0 0.0
2017-Aug-18 00:00N 59°20' E 018°05'0 0.0
2017-Aug-17 23:30N 59°20' E 018°05'0 0.0
2017-Aug-17 23:00N 59°20' E 018°05'0 0.0
2017-Aug-17 22:30N 59°20' E 018°05'0 0.0
2017-Aug-17 22:00N 59°20' E 018°05'0 0.0
2017-Aug-17 21:30N 59°20' E 018°05'0 0.0
2017-Aug-17 21:00N 59°20' E 018°05'0 0.1
2017-Aug-17 20:29N 59°20' E 018°05'4 8.1
2017-Aug-17 19:57N 59°21' E 018°13'4 3.7
2017-Aug-17 18:45N 59°23' E 018°20'2 5.8
2017-Aug-17 18:28N 59°22' E 018°18'5 9.7
2017-Aug-17 18:00N 59°20' E 018°10'3 4.9
2017-Aug-17 17:24N 59°20' E 018°05'0 0.0
2017-Aug-17 17:00N 59°20' E 018°05'0 0.0
2017-Aug-17 16:30N 59°20' E 018°05'0 0.0
2017-Aug-17 16:00N 59°20' E 018°05'2 4.1
2017-Aug-17 15:30N 59°19' E 018°08'4 7.1
2017-Aug-17 14:59N 59°18' E 018°15'4 0.6
2017-Aug-17 09:01N 59°17' E 018°22'1 9.3
2017-Aug-17 08:56N 59°18' E 018°21'4 8.2
2017-Aug-17 08:29N 59°18' E 018°14'3 7.0
2017-Aug-17 08:00N 59°19' E 018°07'2 2.7
2017-Aug-17 07:25N 59°20' E 018°05'0 0.0
2017-Aug-17 06:55N 59°20' E 018°05'0 0.0
2017-Aug-17 06:25N 59°20' E 018°05'0 0.0
2017-Aug-17 05:55N 59°20' E 018°05'0 0.0
2017-Aug-17 05:25N 59°20' E 018°05'0 0.0
2017-Aug-17 04:55N 59°20' E 018°05'0 0.0
2017-Aug-17 04:19N 59°20' E 018°05'0 0.0
2017-Aug-17 03:55N 59°20' E 018°05'0 0.0
2017-Aug-17 03:25N 59°20' E 018°05'0 0.0
2017-Aug-17 02:55N 59°20' E 018°05'0 0.0
2017-Aug-17 02:25N 59°20' E 018°05'0 0.0
2017-Aug-17 01:55N 59°20' E 018°05'0 0.0
2017-Aug-17 01:25N 59°20' E 018°05'0 0.0
2017-Aug-17 00:55N 59°20' E 018°05'0 0.0
2017-Aug-17 00:25N 59°20' E 018°05'0 0.0
2017-Aug-16 23:55N 59°20' E 018°05'0 0.0
2017-Aug-16 23:25N 59°20' E 018°05'0 0.0
2017-Aug-16 22:55N 59°20' E 018°05'0 0.0
2017-Aug-16 22:25N 59°20' E 018°05'0 0.0
2017-Aug-16 21:55N 59°20' E 018°05'0 0.0
2017-Aug-16 21:25N 59°20' E 018°05'0 0.0
2017-Aug-16 20:52N 59°20' E 018°05'0 0.0
2017-Aug-16 20:30N 59°20' E 018°05'4 7.1
2017-Aug-16 20:00N 59°20' E 018°12'5 9.2
2017-Aug-16 19:30N 59°23' E 018°19'1 1.1
2017-Aug-16 18:46N 59°23' E 018°20'2 5.7
2017-Aug-16 18:28N 59°22' E 018°18'5 9.7
2017-Aug-16 18:00N 59°20' E 018°10'3 5.0
2017-Aug-16 17:25N 59°20' E 018°05'0 0.0
2017-Aug-16 16:49N 59°20' E 018°05'0 0.0
2017-Aug-16 16:25N 59°20' E 018°05'0 0.0
2017-Aug-16 15:55N 59°20' E 018°05'1 1.6
2017-Aug-16 15:30N 59°19' E 018°06'4 8.0
2017-Aug-16 15:01N 59°19' E 018°13'2 0.2
2017-Aug-16 08:36N 59°18' E 018°16'1 8.3
2017-Aug-16 08:29N 59°18' E 018°14'3 6.9
2017-Aug-16 07:59N 59°19' E 018°08'2 3.4
2017-Aug-16 07:28N 59°20' E 018°05'0 0.0
2017-Aug-16 06:58N 59°20' E 018°05'0 0.0
2017-Aug-16 06:28N 59°20' E 018°05'0 0.0
2017-Aug-16 05:58N 59°20' E 018°05'0 0.0
2017-Aug-16 05:22N 59°20' E 018°05'0 0.0
2017-Aug-16 04:58N 59°20' E 018°05'0 0.0
2017-Aug-16 04:28N 59°20' E 018°05'0 0.0
2017-Aug-16 03:58N 59°20' E 018°05'0 0.0
2017-Aug-16 03:28N 59°20' E 018°05'0 0.0
2017-Aug-16 02:52N 59°20' E 018°05'0 0.0
2017-Aug-16 02:28N 59°20' E 018°05'0 0.0
2017-Aug-16 01:58N 59°20' E 018°05'0 0.0
2017-Aug-16 01:28N 59°20' E 018°05'0 0.0
2017-Aug-16 00:58N 59°20' E 018°05'0 0.0
2017-Aug-16 00:28N 59°20' E 018°05'0 0.0
2017-Aug-15 23:58N 59°20' E 018°05'0 0.0
2017-Aug-15 23:28N 59°20' E 018°05'0 0.0
2017-Aug-15 22:58N 59°20' E 018°05'0 0.0
2017-Aug-15 22:28N 59°20' E 018°05'0 0.0
2017-Aug-15 21:58N 59°20' E 018°05'0 0.0
2017-Aug-15 21:28N 59°20' E 018°05'0 0.0
2017-Aug-15 20:58N 59°20' E 018°05'0 0.0
2017-Aug-15 20:28N 59°20' E 018°05'0 0.0
2017-Aug-15 19:58N 59°20' E 018°05'0 0.0
2017-Aug-15 19:28N 59°20' E 018°05'0 0.0
2017-Aug-15 18:58N 59°20' E 018°05'0 0.0
2017-Aug-15 18:28N 59°20' E 018°05'0 0.0
2017-Aug-15 17:52N 59°20' E 018°05'0 0.0
2017-Aug-15 17:28N 59°20' E 018°05'0 0.0
2017-Aug-15 16:52N 59°20' E 018°05'0 0.0
2017-Aug-15 16:28N 59°20' E 018°05'0 0.0
2017-Aug-15 15:58N 59°20' E 018°05'2 4.2
2017-Aug-15 15:29N 59°19' E 018°08'3 7.2
2017-Aug-15 15:00N 59°18' E 018°15'4 0.7
2017-Aug-15 09:02N 59°17' E 018°22'0 8.9
2017-Aug-15 09:00N 59°17' E 018°22'4 8.0
2017-Aug-15 08:28N 59°18' E 018°13'3 7.1
2017-Aug-15 07:59N 59°19' E 018°07'1 2.4
2017-Aug-15 07:23N 59°20' E 018°05'0 0.0
2017-Aug-15 06:53N 59°20' E 018°05'0 0.0
2017-Aug-15 06:29N 59°20' E 018°05'0 0.0
2017-Aug-15 05:59N 59°20' E 018°05'0 0.0
2017-Aug-15 05:29N 59°20' E 018°05'0 0.0
2017-Aug-15 04:59N 59°20' E 018°05'0 0.0
2017-Aug-15 04:29N 59°20' E 018°05'0 0.0
2017-Aug-15 03:59N 59°20' E 018°05'0 0.0
2017-Aug-15 03:29N 59°20' E 018°05'0 0.0
2017-Aug-15 02:59N 59°20' E 018°05'0 0.0
2017-Aug-15 02:29N 59°20' E 018°05'0 0.0
2017-Aug-15 01:59N 59°20' E 018°05'0 0.0
2017-Aug-15 01:29N 59°20' E 018°05'0 0.0
2017-Aug-15 00:53N 59°20' E 018°05'0 0.0
2017-Aug-15 00:29N 59°20' E 018°05'0 0.0
2017-Aug-14 23:53N 59°20' E 018°05'0 0.0
2017-Aug-14 23:29N 59°20' E 018°05'0 0.0
2017-Aug-14 22:59N 59°20' E 018°05'0 0.0
2017-Aug-14 22:23N 59°20' E 018°05'0 0.0
2017-Aug-14 21:59N 59°20' E 018°05'0 0.0
2017-Aug-14 21:29N 59°20' E 018°05'0 0.0
2017-Aug-14 20:59N 59°20' E 018°05'0 0.0
2017-Aug-14 20:29N 59°20' E 018°05'0 0.0
2017-Aug-14 19:59N 59°20' E 018°05'0 0.0
2017-Aug-14 19:29N 59°20' E 018°05'0 0.0
2017-Aug-14 18:59N 59°20' E 018°05'0 0.0
2017-Aug-14 18:29N 59°20' E 018°05'0 0.0
2017-Aug-14 17:59N 59°20' E 018°05'0 0.0
2017-Aug-14 17:23N 59°20' E 018°05'0 0.0
2017-Aug-14 16:59N 59°20' E 018°05'0 0.0
2017-Aug-14 16:29N 59°20' E 018°05'0 0.0
2017-Aug-14 15:59N 59°20' E 018°05'3 6.4
2017-Aug-14 15:30N 59°20' E 018°11'4 5.9
2017-Aug-14 14:48N 59°18' E 018°18'3 0.5
2017-Aug-14 09:05N 59°17' E 018°23'1 8.7
2017-Aug-14 09:00N 59°17' E 018°22'4 8.8
2017-Aug-14 08:30N 59°18' E 018°13'3 6.5
2017-Aug-14 07:59N 59°19' E 018°07'2 2.8
2017-Aug-14 07:26N 59°20' E 018°05'0 0.0
2017-Aug-14 06:56N 59°20' E 018°05'0 0.0
2017-Aug-14 06:26N 59°20' E 018°05'0 0.0
2017-Aug-14 05:56N 59°20' E 018°05'0 0.0
2017-Aug-14 05:26N 59°20' E 018°05'0 0.0
2017-Aug-14 04:56N 59°20' E 018°05'0 0.0
2017-Aug-14 04:26N 59°20' E 018°05'0 0.0
2017-Aug-14 03:56N 59°20' E 018°05'0 0.0
2017-Aug-14 03:26N 59°20' E 018°05'0 0.0
2017-Aug-14 02:56N 59°20' E 018°05'0 0.0
2017-Aug-14 02:26N 59°20' E 018°05'0 0.0
2017-Aug-14 01:56N 59°20' E 018°05'0 0.0
2017-Aug-14 01:26N 59°20' E 018°05'0 0.0
2017-Aug-14 00:56N 59°20' E 018°05'0 0.0
2017-Aug-14 00:26N 59°20' E 018°05'0 0.0
2017-Aug-13 23:56N 59°20' E 018°05'0 0.0
2017-Aug-13 23:26N 59°20' E 018°05'0 0.0
2017-Aug-13 22:56N 59°20' E 018°05'0 0.0
2017-Aug-13 22:26N 59°20' E 018°05'0 0.0
2017-Aug-13 21:56N 59°20' E 018°05'0 0.0
2017-Aug-13 21:14N 59°20' E 018°05'0 0.0
2017-Aug-13 20:56N 59°20' E 018°05'0 0.0
2017-Aug-13 20:26N 59°20' E 018°05'0 0.0
2017-Aug-13 19:50N 59°20' E 018°05'0 0.0
2017-Aug-13 19:26N 59°20' E 018°05'0 0.0
2017-Aug-13 18:56N 59°20' E 018°05'0 0.0
2017-Aug-13 18:26N 59°20' E 018°05'0 0.0
2017-Aug-13 17:50N 59°20' E 018°05'0 0.0
2017-Aug-13 17:26N 59°20' E 018°05'0 0.0
2017-Aug-13 16:56N 59°20' E 018°05'0 0.0
2017-Aug-13 16:26N 59°20' E 018°05'0 0.0
2017-Aug-13 15:50N 59°20' E 018°05'2 6.2
2017-Aug-13 15:29N 59°19' E 018°09'3 6.9
2017-Aug-13 15:00N 59°18' E 018°15'4 0.7
2017-Aug-13 08:58N 59°17' E 018°23'4 8.6
2017-Aug-13 08:28N 59°18' E 018°14'3 6.9
2017-Aug-13 08:00N 59°19' E 018°08'2 3.9
2017-Aug-13 07:28N 59°20' E 018°05'0 0.0
2017-Aug-13 06:46N 59°20' E 018°05'0 0.0
2017-Aug-13 06:28N 59°20' E 018°05'0 0.0
2017-Aug-13 05:58N 59°20' E 018°05'0 0.0
2017-Aug-13 05:22N 59°20' E 018°05'0 0.0
2017-Aug-13 04:58N 59°20' E 018°05'0 0.0
2017-Aug-13 04:28N 59°20' E 018°05'0 0.0
2017-Aug-13 03:58N 59°20' E 018°05'0 0.0
2017-Aug-13 03:28N 59°20' E 018°05'0 0.0
2017-Aug-13 02:52N 59°20' E 018°05'0 0.0
2017-Aug-13 02:28N 59°20' E 018°05'0 0.0
2017-Aug-13 01:52N 59°20' E 018°05'0 0.0
2017-Aug-13 01:28N 59°20' E 018°05'0 0.0
2017-Aug-13 00:58N 59°20' E 018°05'0 0.0
2017-Aug-13 00:22N 59°20' E 018°05'0 0.0
2017-Aug-12 23:58N 59°20' E 018°05'0 0.0
2017-Aug-12 23:28N 59°20' E 018°05'0 0.0
2017-Aug-12 22:58N 59°20' E 018°05'0 0.0
2017-Aug-12 22:28N 59°20' E 018°05'0 0.0
2017-Aug-12 21:58N 59°20' E 018°05'0 0.0
2017-Aug-12 21:28N 59°20' E 018°05'0 0.0
2017-Aug-12 20:52N 59°20' E 018°05'0 0.0
2017-Aug-12 20:28N 59°20' E 018°05'4 7.5
2017-Aug-12 20:00N 59°20' E 018°11'510.0
2017-Aug-12 19:30N 59°23' E 018°19'0 0.5
2017-Aug-12 18:41N 59°23' E 018°20'1 5.3
2017-Aug-12 18:24N 59°22' E 018°18'4 9.7
2017-Aug-12 17:59N 59°20' E 018°11'3 5.7
2017-Aug-12 17:24N 59°20' E 018°05'0 0.0
2017-Aug-12 17:00N 59°20' E 018°05'0 0.0
2017-Aug-12 16:30N 59°20' E 018°05'0 0.0
2017-Aug-12 15:42N 59°20' E 018°05'1 6.3
2017-Aug-12 15:30N 59°19' E 018°07'4 8.0
2017-Aug-12 14:59N 59°18' E 018°14'4 0.7
2017-Aug-12 09:02N 59°17' E 018°23'1 9.1
2017-Aug-12 08:58N 59°17' E 018°21'4 8.2
2017-Aug-12 08:30N 59°18' E 018°14'4 7.0
2017-Aug-12 07:59N 59°19' E 018°07'2 2.6
2017-Aug-12 07:22N 59°20' E 018°05'0 0.0
2017-Aug-12 06:58N 59°20' E 018°05'0 0.0
2017-Aug-12 06:28N 59°20' E 018°05'0 0.0
2017-Aug-12 05:52N 59°20' E 018°05'0 0.0
2017-Aug-12 05:22N 59°20' E 018°05'0 0.0
2017-Aug-12 04:58N 59°20' E 018°05'0 0.0
2017-Aug-12 04:28N 59°20' E 018°05'0 0.0
2017-Aug-12 03:58N 59°20' E 018°05'0 0.0
2017-Aug-12 03:28N 59°20' E 018°05'0 0.0
2017-Aug-12 02:58N 59°20' E 018°05'0 0.0
2017-Aug-12 02:28N 59°20' E 018°05'0 0.0
2017-Aug-12 01:58N 59°20' E 018°05'0 0.0
2017-Aug-12 01:28N 59°20' E 018°05'0 0.0
2017-Aug-12 00:58N 59°20' E 018°05'0 0.0
2017-Aug-12 00:28N 59°20' E 018°05'0 0.0
2017-Aug-11 23:58N 59°20' E 018°05'0 0.0
2017-Aug-11 23:28N 59°20' E 018°05'0 0.0
2017-Aug-11 22:58N 59°20' E 018°05'0 0.0
2017-Aug-11 22:28N 59°20' E 018°05'0 0.0
2017-Aug-11 21:58N 59°20' E 018°05'0 0.0
2017-Aug-11 21:28N 59°20' E 018°05'0 0.0
2017-Aug-11 20:58N 59°20' E 018°05'0 0.0
2017-Aug-11 20:30N 59°20' E 018°05'4 8.5
2017-Aug-11 19:59N 59°21' E 018°13'4 3.2
2017-Aug-11 18:41N 59°22' E 018°21'1 5.3
2017-Aug-11 18:25N 59°22' E 018°18'4 9.5
2017-Aug-11 18:00N 59°20' E 018°11'3 5.2
2017-Aug-11 17:20N 59°20' E 018°05'0 0.0
2017-Aug-11 16:56N 59°20' E 018°05'0 0.0
2017-Aug-11 16:26N 59°20' E 018°05'0 0.0
2017-Aug-11 15:56N 59°20' E 018°05'1 3.0
2017-Aug-11 15:30N 59°19' E 018°07'4 7.1
2017-Aug-11 14:58N 59°18' E 018°14'4 0.7
2017-Aug-11 09:00N 59°17' E 018°22'4 8.5
2017-Aug-11 08:30N 59°18' E 018°14'4 6.9
2017-Aug-11 07:59N 59°19' E 018°07'2 3.2
2017-Aug-11 07:30N 59°20' E 018°05'0 0.0
2017-Aug-11 07:00N 59°20' E 018°05'0 0.0
2017-Aug-11 06:30N 59°20' E 018°05'0 0.0
2017-Aug-11 05:54N 59°20' E 018°05'0 0.0
2017-Aug-11 05:30N 59°20' E 018°05'0 0.0
2017-Aug-11 05:00N 59°20' E 018°05'0 0.0
2017-Aug-11 04:30N 59°20' E 018°05'0 0.0
2017-Aug-11 03:54N 59°20' E 018°05'0 0.0
2017-Aug-11 03:30N 59°20' E 018°05'0 0.0
2017-Aug-11 03:00N 59°20' E 018°05'0 0.0
2017-Aug-11 02:30N 59°20' E 018°05'0 0.0
2017-Aug-11 02:00N 59°20' E 018°05'0 0.0
2017-Aug-11 01:30N 59°20' E 018°05'0 0.0
2017-Aug-11 01:00N 59°20' E 018°05'0 0.0
2017-Aug-11 00:30N 59°20' E 018°05'0 0.0
2017-Aug-11 00:00N 59°20' E 018°05'0 0.0
2017-Aug-10 23:30N 59°20' E 018°05'0 0.0
2017-Aug-10 23:00N 59°20' E 018°05'0 0.0
2017-Aug-10 22:30N 59°20' E 018°05'0 0.0
2017-Aug-10 22:00N 59°20' E 018°05'0 0.0
2017-Aug-10 21:30N 59°20' E 018°05'0 0.0
2017-Aug-10 21:00N 59°20' E 018°05'1 1.3
2017-Aug-10 20:27N 59°19' E 018°06'3 7.6
2017-Aug-10 20:00N 59°20' E 018°12'5 4.3
2017-Aug-10 18:47N 59°23' E 018°20'2 5.5
2017-Aug-10 18:27N 59°22' E 018°18'4 9.7
2017-Aug-10 18:00N 59°20' E 018°11'3 6.0
2017-Aug-10 17:30N 59°20' E 018°05'0 0.0
2017-Aug-10 17:00N 59°20' E 018°05'0 0.0
2017-Aug-10 16:18N 59°20' E 018°05'0 0.0
2017-Aug-10 15:54N 59°20' E 018°05'2 5.8
2017-Aug-10 15:30N 59°19' E 018°09'3 6.6
2017-Aug-10 15:00N 59°18' E 018°15'3 0.6
2017-Aug-10 08:59N 59°18' E 018°21'4 7.1
2017-Aug-10 08:22N 59°19' E 018°13'3 8.0
2017-Aug-10 07:59N 59°19' E 018°07'2 2.8
2017-Aug-10 07:23N 59°20' E 018°05'0 0.0
2017-Aug-10 06:59N 59°20' E 018°05'0 0.0
2017-Aug-10 06:29N 59°20' E 018°05'0 0.0
2017-Aug-10 05:53N 59°20' E 018°05'0 0.0
2017-Aug-10 05:29N 59°20' E 018°05'0 0.0
2017-Aug-10 04:53N 59°20' E 018°05'0 0.0
2017-Aug-10 04:29N 59°20' E 018°05'0 0.0
2017-Aug-10 03:59N 59°20' E 018°05'0 0.0
2017-Aug-10 03:29N 59°20' E 018°05'0 0.0
2017-Aug-10 02:59N 59°20' E 018°05'0 0.0
2017-Aug-10 02:29N 59°20' E 018°05'0 0.0
2017-Aug-10 01:59N 59°20' E 018°05'0 0.0
2017-Aug-10 01:29N 59°20' E 018°05'0 0.0
2017-Aug-10 00:53N 59°20' E 018°05'0 0.0
2017-Aug-10 00:29N 59°20' E 018°05'0 0.0
2017-Aug-09 23:59N 59°20' E 018°05'0 0.0
2017-Aug-09 23:29N 59°20' E 018°05'0 0.0
2017-Aug-09 22:59N 59°20' E 018°05'0 0.0
2017-Aug-09 22:29N 59°20' E 018°05'0 0.0
2017-Aug-09 21:59N 59°20' E 018°05'0 0.0
2017-Aug-09 21:29N 59°20' E 018°05'0 0.0
2017-Aug-09 20:59N 59°20' E 018°05'0 0.0
2017-Aug-09 20:30N 59°20' E 018°05'4 7.2
2017-Aug-09 20:00N 59°20' E 018°12'5 9.9
2017-Aug-09 19:30N 59°23' E 018°20'0 0.5
2017-Aug-09 18:45N 59°23' E 018°20'1 4.8
2017-Aug-09 18:27N 59°22' E 018°18'4 9.2
2017-Aug-09 18:01N 59°20' E 018°11'3 6.5
2017-Aug-09 17:30N 59°20' E 018°05'0 0.0
2017-Aug-09 16:54N 59°20' E 018°05'0 0.0
2017-Aug-09 16:30N 59°20' E 018°05'0 0.0
2017-Aug-09 16:00N 59°20' E 018°05'1 2.3
2017-Aug-09 15:30N 59°19' E 018°06'4 7.1
2017-Aug-09 14:59N 59°18' E 018°13'4 7.8
2017-Aug-09 14:30N 59°18' E 018°21'0 0.1
2017-Aug-09 08:59N 59°17' E 018°21'4 8.2
2017-Aug-09 08:30N 59°18' E 018°14'4 7.1
2017-Aug-09 07:59N 59°19' E 018°07'1 2.6
2017-Aug-09 07:27N 59°20' E 018°05'0 0.0
2017-Aug-09 06:57N 59°20' E 018°05'0 0.0
2017-Aug-09 06:21N 59°20' E 018°05'0 0.0
2017-Aug-09 05:51N 59°20' E 018°05'0 0.0
2017-Aug-09 05:27N 59°20' E 018°05'0 0.0
2017-Aug-09 04:57N 59°20' E 018°05'0 0.0
2017-Aug-09 04:27N 59°20' E 018°05'0 0.0
2017-Aug-09 03:57N 59°20' E 018°05'0 0.0
2017-Aug-09 03:27N 59°20' E 018°05'0 0.0
2017-Aug-09 02:57N 59°20' E 018°05'0 0.0
2017-Aug-09 02:27N 59°20' E 018°05'0 0.0
2017-Aug-09 01:57N 59°20' E 018°05'0 0.0
2017-Aug-09 01:27N 59°20' E 018°05'0 0.0
2017-Aug-09 00:57N 59°20' E 018°05'0 0.0
2017-Aug-09 00:27N 59°20' E 018°05'0 0.0
2017-Aug-08 23:57N 59°20' E 018°05'0 0.0
2017-Aug-08 23:27N 59°20' E 018°05'0 0.0
2017-Aug-08 22:57N 59°20' E 018°05'0 0.0
2017-Aug-08 22:27N 59°20' E 018°05'0 0.0
2017-Aug-08 21:57N 59°20' E 018°05'0 0.0
2017-Aug-08 21:27N 59°20' E 018°05'0 0.0
2017-Aug-08 20:57N 59°20' E 018°05'0 0.0
2017-Aug-08 20:27N 59°20' E 018°05'0 0.0
2017-Aug-08 19:57N 59°20' E 018°05'0 0.0
2017-Aug-08 19:27N 59°20' E 018°05'0 0.0
2017-Aug-08 18:57N 59°20' E 018°05'0 0.0
2017-Aug-08 18:27N 59°20' E 018°05'  
Track history (hours):
 
Tides and Currents Weather Stations Pressure Air Temp Water Temp Dewpoint Dewpoint Depression Visibility Wind Speed Wind Dir Waves Ship Positions

M/s Stromma Kanal

Last reported at 2017-Aug-18 17:57 UTC. Time now 2017-Aug-18 18:04 UTC.
Position N 59°20' E 018°11'.

Length 26 m.

Type: Passenger vessel. MMSI: 265609570.

Date/timePositionNaut miles runAvg speedWind from/ knotsBaromVisibWave heightAir tempDewpointWater temp
2017-Aug-18 17:57N 59°20' E 018°11'3 6.9
2017-Aug-18 17:30N 59°20' E 018°05'0 0.2
2017-Aug-18 16:56N 59°20' E 018°05'0 0.0
2017-Aug-18 16:20N 59°20' E 018°05'0 0.0
2017-Aug-18 15:56N 59°20' E 018°05'2 4.6
2017-Aug-18 15:30N 59°19' E 018°08'4 7.2
2017-Aug-18 15:00N 59°18' E 018°15'2 0.4
2017-Aug-18 08:54N 59°18' E 018°20'3 7.6
2017-Aug-18 08:29N 59°18' E 018°14'3 6.7
2017-Aug-18 08:00N 59°19' E 018°08'2 3.6
2017-Aug-18 07:30N 59°20' E 018°05'0 0.0
2017-Aug-18 07:00N 59°20' E 018°05'0 0.0
2017-Aug-18 06:30N 59°20' E 018°05'0 0.0
2017-Aug-18 05:54N 59°20' E 018°05'0 0.0
2017-Aug-18 05:30N 59°20' E 018°05'0 0.0
2017-Aug-18 05:00N 59°20' E 018°05'0 0.0
2017-Aug-18 04:30N 59°20' E 018°05'0 0.0
2017-Aug-18 04:00N 59°20' E 018°05'0 0.0
2017-Aug-18 03:30N 59°20' E 018°05'0 0.0
2017-Aug-18 03:00N 59°20' E 018°05'0 0.0
2017-Aug-18 02:30N 59°20' E 018°05'0 0.0
2017-Aug-18 02:00N 59°20' E 018°05'0 0.0
2017-Aug-18 01:30N 59°20' E 018°05'0 0.0
2017-Aug-18 01:00N 59°20' E 018°05'0 0.0
2017-Aug-18 00:24N 59°20' E 018°05'0 0.0
2017-Aug-18 00:00N 59°20' E 018°05'0 0.0
2017-Aug-17 23:30N 59°20' E 018°05'0 0.0
2017-Aug-17 23:00N 59°20' E 018°05'0 0.0
2017-Aug-17 22:30N 59°20' E 018°05'0 0.0
2017-Aug-17 22:00N 59°20' E 018°05'0 0.0
2017-Aug-17 21:30N 59°20' E 018°05'0 0.0
2017-Aug-17 21:00N 59°20' E 018°05'0 0.1
2017-Aug-17 20:29N 59°20' E 018°05'4 8.1
2017-Aug-17 19:57N 59°21' E 018°13'4 3.7
2017-Aug-17 18:45N 59°23' E 018°20'2 5.8
2017-Aug-17 18:28N 59°22' E 018°18'5 9.7
2017-Aug-17 18:00N 59°20' E 018°10'3 4.9
2017-Aug-17 17:24N 59°20' E 018°05'0 0.0
2017-Aug-17 17:00N 59°20' E 018°05'0 0.0
2017-Aug-17 16:30N 59°20' E 018°05'0 0.0
2017-Aug-17 16:00N 59°20' E 018°05'2 4.1
2017-Aug-17 15:30N 59°19' E 018°08'4 7.1
2017-Aug-17 14:59N 59°18' E 018°15'4 0.6
2017-Aug-17 09:01N 59°17' E 018°22'1 9.3
2017-Aug-17 08:56N 59°18' E 018°21'4 8.2
2017-Aug-17 08:29N 59°18' E 018°14'3 7.0
2017-Aug-17 08:00N 59°19' E 018°07'2 2.7
2017-Aug-17 07:25N 59°20' E 018°05'0 0.0
2017-Aug-17 06:55N 59°20' E 018°05'0 0.0
2017-Aug-17 06:25N 59°20' E 018°05'0 0.0
2017-Aug-17 05:55N 59°20' E 018°05'0 0.0
2017-Aug-17 05:25N 59°20' E 018°05'0 0.0
2017-Aug-17 04:55N 59°20' E 018°05'0 0.0
2017-Aug-17 04:19N 59°20' E 018°05'0 0.0
2017-Aug-17 03:55N 59°20' E 018°05'0 0.0
2017-Aug-17 03:25N 59°20' E 018°05'0 0.0
2017-Aug-17 02:55N 59°20' E 018°05'0 0.0
2017-Aug-17 02:25N 59°20' E 018°05'0 0.0
2017-Aug-17 01:55N 59°20' E 018°05'0 0.0
2017-Aug-17 01:25N 59°20' E 018°05'0 0.0
2017-Aug-17 00:55N 59°20' E 018°05'0 0.0
2017-Aug-17 00:25N 59°20' E 018°05'0 0.0
2017-Aug-16 23:55N 59°20' E 018°05'0 0.0
2017-Aug-16 23:25N 59°20' E 018°05'0 0.0
2017-Aug-16 22:55N 59°20' E 018°05'0 0.0
2017-Aug-16 22:25N 59°20' E 018°05'0 0.0
2017-Aug-16 21:55N 59°20' E 018°05'0 0.0
2017-Aug-16 21:25N 59°20' E 018°05'0 0.0
2017-Aug-16 20:52N 59°20' E 018°05'0 0.0
2017-Aug-16 20:30N 59°20' E 018°05'4 7.1
2017-Aug-16 20:00N 59°20' E 018°12'5 9.2
2017-Aug-16 19:30N 59°23' E 018°19'1 1.1
2017-Aug-16 18:46N 59°23' E 018°20'2 5.7
2017-Aug-16 18:28N 59°22' E 018°18'5 9.7
2017-Aug-16 18:00N 59°20' E 018°10'3 5.0
2017-Aug-16 17:25N 59°20' E 018°05'0 0.0
2017-Aug-16 16:49N 59°20' E 018°05'0 0.0
2017-Aug-16 16:25N 59°20' E 018°05'0 0.0
2017-Aug-16 15:55N 59°20' E 018°05'1 1.6
2017-Aug-16 15:30N 59°19' E 018°06'4 8.0
2017-Aug-16 15:01N 59°19' E 018°13'2 0.2
2017-Aug-16 08:36N 59°18' E 018°16'1 8.3
2017-Aug-16 08:29N 59°18' E 018°14'3 6.9
2017-Aug-16 07:59N 59°19' E 018°08'2 3.4
2017-Aug-16 07:28N 59°20' E 018°05'0 0.0
2017-Aug-16 06:58N 59°20' E 018°05'0 0.0
2017-Aug-16 06:28N 59°20' E 018°05'0 0.0
2017-Aug-16 05:58N 59°20' E 018°05'0 0.0
2017-Aug-16 05:22N 59°20' E 018°05'0 0.0
2017-Aug-16 04:58N 59°20' E 018°05'0 0.0
2017-Aug-16 04:28N 59°20' E 018°05'0 0.0
2017-Aug-16 03:58N 59°20' E 018°05'0 0.0
2017-Aug-16 03:28N 59°20' E 018°05'0 0.0
2017-Aug-16 02:52N 59°20' E 018°05'0 0.0
2017-Aug-16 02:28N 59°20' E 018°05'0 0.0
2017-Aug-16 01:58N 59°20' E 018°05'0 0.0
2017-Aug-16 01:28N 59°20' E 018°05'0 0.0
2017-Aug-16 00:58N 59°20' E 018°05'0 0.0
2017-Aug-16 00:28N 59°20' E 018°05'0 0.0
2017-Aug-15 23:58N 59°20' E 018°05'0 0.0
2017-Aug-15 23:28N 59°20' E 018°05'0 0.0
2017-Aug-15 22:58N 59°20' E 018°05'0 0.0
2017-Aug-15 22:28N 59°20' E 018°05'0 0.0
2017-Aug-15 21:58N 59°20' E 018°05'0 0.0
2017-Aug-15 21:28N 59°20' E 018°05'0 0.0
2017-Aug-15 20:58N 59°20' E 018°05'0 0.0
2017-Aug-15 20:28N 59°20' E 018°05'0 0.0
2017-Aug-15 19:58N 59°20' E 018°05'0 0.0
2017-Aug-15 19:28N 59°20' E 018°05'0 0.0
2017-Aug-15 18:58N 59°20' E 018°05'0 0.0
2017-Aug-15 18:28N 59°20' E 018°05'0 0.0
2017-Aug-15 17:52N 59°20' E 018°05'0 0.0
2017-Aug-15 17:28N 59°20' E 018°05'0 0.0
2017-Aug-15 16:52N 59°20' E 018°05'0 0.0
2017-Aug-15 16:28N 59°20' E 018°05'0 0.0
2017-Aug-15 15:58N 59°20' E 018°05'2 4.2
2017-Aug-15 15:29N 59°19' E 018°08'3 7.2
2017-Aug-15 15:00N 59°18' E 018°15'4 0.7
2017-Aug-15 09:02N 59°17' E 018°22'0 8.9
2017-Aug-15 09:00N 59°17' E 018°22'4 8.0
2017-Aug-15 08:28N 59°18' E 018°13'3 7.1
2017-Aug-15 07:59N 59°19' E 018°07'1 2.4
2017-Aug-15 07:23N 59°20' E 018°05'0 0.0
2017-Aug-15 06:53N 59°20' E 018°05'0 0.0
2017-Aug-15 06:29N 59°20' E 018°05'0 0.0
2017-Aug-15 05:59N 59°20' E 018°05'0 0.0
2017-Aug-15 05:29N 59°20' E 018°05'0 0.0
2017-Aug-15 04:59N 59°20' E 018°05'0 0.0
2017-Aug-15 04:29N 59°20' E 018°05'0 0.0
2017-Aug-15 03:59N 59°20' E 018°05'0 0.0
2017-Aug-15 03:29N 59°20' E 018°05'0 0.0
2017-Aug-15 02:59N 59°20' E 018°05'0 0.0
2017-Aug-15 02:29N 59°20' E 018°05'0 0.0
2017-Aug-15 01:59N 59°20' E 018°05'0 0.0
2017-Aug-15 01:29N 59°20' E 018°05'0 0.0
2017-Aug-15 00:53N 59°20' E 018°05'0 0.0
2017-Aug-15 00:29N 59°20' E 018°05'0 0.0
2017-Aug-14 23:53N 59°20' E 018°05'0 0.0
2017-Aug-14 23:29N 59°20' E 018°05'0 0.0
2017-Aug-14 22:59N 59°20' E 018°05'0 0.0
2017-Aug-14 22:23N 59°20' E 018°05'0 0.0
2017-Aug-14 21:59N 59°20' E 018°05'0 0.0
2017-Aug-14 21:29N 59°20' E 018°05'0 0.0
2017-Aug-14 20:59N 59°20' E 018°05'0 0.0
2017-Aug-14 20:29N 59°20' E 018°05'0 0.0
2017-Aug-14 19:59N 59°20' E 018°05'0 0.0
2017-Aug-14 19:29N 59°20' E 018°05'0 0.0
2017-Aug-14 18:59N 59°20' E 018°05'0 0.0
2017-Aug-14 18:29N 59°20' E 018°05'0 0.0
2017-Aug-14 17:59N 59°20' E 018°05'0 0.0
2017-Aug-14 17:23N 59°20' E 018°05'0 0.0
2017-Aug-14 16:59N 59°20' E 018°05'0 0.0
2017-Aug-14 16:29N 59°20' E 018°05'0 0.0
2017-Aug-14 15:59N 59°20' E 018°05'3 6.4
2017-Aug-14 15:30N 59°20' E 018°11'4 5.9
2017-Aug-14 14:48N 59°18' E 018°18'3 0.5
2017-Aug-14 09:05N 59°17' E 018°23'1 8.7
2017-Aug-14 09:00N 59°17' E 018°22'4 8.8
2017-Aug-14 08:30N 59°18' E 018°13'3 6.5
2017-Aug-14 07:59N 59°19' E 018°07'2 2.8
2017-Aug-14 07:26N 59°20' E 018°05'0 0.0
2017-Aug-14 06:56N 59°20' E 018°05'0 0.0
2017-Aug-14 06:26N 59°20' E 018°05'0 0.0
2017-Aug-14 05:56N 59°20' E 018°05'0 0.0
2017-Aug-14 05:26N 59°20' E 018°05'0 0.0
2017-Aug-14 04:56N 59°20' E 018°05'0 0.0
2017-Aug-14 04:26N 59°20' E 018°05'0 0.0
2017-Aug-14 03:56N 59°20' E 018°05'0 0.0
2017-Aug-14 03:26N 59°20' E 018°05'0 0.0
2017-Aug-14 02:56N 59°20' E 018°05'0 0.0
2017-Aug-14 02:26N 59°20' E 018°05'0 0.0
2017-Aug-14 01:56N 59°20' E 018°05'0 0.0
2017-Aug-14 01:26N 59°20' E 018°05'0 0.0
2017-Aug-14 00:56N 59°20' E 018°05'0 0.0
2017-Aug-14 00:26N 59°20' E 018°05'0 0.0
2017-Aug-13 23:56N 59°20' E 018°05'0 0.0
2017-Aug-13 23:26N 59°20' E 018°05'0 0.0
2017-Aug-13 22:56N 59°20' E 018°05'0 0.0
2017-Aug-13 22:26N 59°20' E 018°05'0 0.0
2017-Aug-13 21:56N 59°20' E 018°05'0 0.0
2017-Aug-13 21:14N 59°20' E 018°05'0 0.0
2017-Aug-13 20:56N 59°20' E 018°05'0 0.0
2017-Aug-13 20:26N 59°20' E 018°05'0 0.0
2017-Aug-13 19:50N 59°20' E 018°05'0 0.0
2017-Aug-13 19:26N 59°20' E 018°05'0 0.0
2017-Aug-13 18:56N 59°20' E 018°05'0 0.0
2017-Aug-13 18:26N 59°20' E 018°05'0 0.0
2017-Aug-13 17:50N 59°20' E 018°05'0 0.0
2017-Aug-13 17:26N 59°20' E 018°05'0 0.0
2017-Aug-13 16:56N 59°20' E 018°05'0 0.0
2017-Aug-13 16:26N 59°20' E 018°05'0 0.0
2017-Aug-13 15:50N 59°20' E 018°05'2 6.2
2017-Aug-13 15:29N 59°19' E 018°09'3 6.9
2017-Aug-13 15:00N 59°18' E 018°15'4 0.7
2017-Aug-13 08:58N 59°17' E 018°23'4 8.6
2017-Aug-13 08:28N 59°18' E 018°14'3 6.9
2017-Aug-13 08:00N 59°19' E 018°08'2 3.9
2017-Aug-13 07:28N 59°20' E 018°05'0 0.0
2017-Aug-13 06:46N 59°20' E 018°05'0 0.0
2017-Aug-13 06:28N 59°20' E 018°05'0 0.0
2017-Aug-13 05:58N 59°20' E 018°05'0 0.0
2017-Aug-13 05:22N 59°20' E 018°05'0 0.0
2017-Aug-13 04:58N 59°20' E 018°05'0 0.0
2017-Aug-13 04:28N 59°20' E 018°05'0 0.0
2017-Aug-13 03:58N 59°20' E 018°05'0 0.0
2017-Aug-13 03:28N 59°20' E 018°05'0 0.0
2017-Aug-13 02:52N 59°20' E 018°05'0 0.0
2017-Aug-13 02:28N 59°20' E 018°05'0 0.0
2017-Aug-13 01:52N 59°20' E 018°05'0 0.0
2017-Aug-13 01:28N 59°20' E 018°05'0 0.0
2017-Aug-13 00:58N 59°20' E 018°05'0 0.0
2017-Aug-13 00:22N 59°20' E 018°05'0 0.0
2017-Aug-12 23:58N 59°20' E 018°05'0 0.0
2017-Aug-12 23:28N 59°20' E 018°05'0 0.0
2017-Aug-12 22:58N 59°20' E 018°05'0 0.0
2017-Aug-12 22:28N 59°20' E 018°05'0 0.0
2017-Aug-12 21:58N 59°20' E 018°05'0 0.0
2017-Aug-12 21:28N 59°20' E 018°05'0 0.0
2017-Aug-12 20:52N 59°20' E 018°05'0 0.0
2017-Aug-12 20:28N 59°20' E 018°05'4 7.5
2017-Aug-12 20:00N 59°20' E 018°11'510.0
2017-Aug-12 19:30N 59°23' E 018°19'0 0.5
2017-Aug-12 18:41N 59°23' E 018°20'1 5.3
2017-Aug-12 18:24N 59°22' E 018°18'4 9.7
2017-Aug-12 17:59N 59°20' E 018°11'3 5.7
2017-Aug-12 17:24N 59°20' E 018°05'0 0.0
2017-Aug-12 17:00N 59°20' E 018°05'0 0.0
2017-Aug-12 16:30N 59°20' E 018°05'0 0.0
2017-Aug-12 15:42N 59°20' E 018°05'1 6.3
2017-Aug-12 15:30N 59°19' E 018°07'4 8.0
2017-Aug-12 14:59N 59°18' E 018°14'4 0.7
2017-Aug-12 09:02N 59°17' E 018°23'1 9.1
2017-Aug-12 08:58N 59°17' E 018°21'4 8.2
2017-Aug-12 08:30N 59°18' E 018°14'4 7.0
2017-Aug-12 07:59N 59°19' E 018°07'2 2.6
2017-Aug-12 07:22N 59°20' E 018°05'0 0.0
2017-Aug-12 06:58N 59°20' E 018°05'0 0.0
2017-Aug-12 06:28N 59°20' E 018°05'0 0.0
2017-Aug-12 05:52N 59°20' E 018°05'0 0.0
2017-Aug-12 05:22N 59°20' E 018°05'0 0.0
2017-Aug-12 04:58N 59°20' E 018°05'0 0.0
2017-Aug-12 04:28N 59°20' E 018°05'0 0.0
2017-Aug-12 03:58N 59°20' E 018°05'0 0.0
2017-Aug-12 03:28N 59°20' E 018°05'0 0.0
2017-Aug-12 02:58N 59°20' E 018°05'0 0.0
2017-Aug-12 02:28N 59°20' E 018°05'0 0.0
2017-Aug-12 01:58N 59°20' E 018°05'0 0.0
2017-Aug-12 01:28N 59°20' E 018°05'0 0.0
2017-Aug-12 00:58N 59°20' E 018°05'0 0.0
2017-Aug-12 00:28N 59°20' E 018°05'0 0.0
2017-Aug-11 23:58N 59°20' E 018°05'0 0.0
2017-Aug-11 23:28N 59°20' E 018°05'0 0.0
2017-Aug-11 22:58N 59°20' E 018°05'0 0.0
2017-Aug-11 22:28N 59°20' E 018°05'0 0.0
2017-Aug-11 21:58N 59°20' E 018°05'0 0.0
2017-Aug-11 21:28N 59°20' E 018°05'0 0.0
2017-Aug-11 20:58N 59°20' E 018°05'0 0.0
2017-Aug-11 20:30N 59°20' E 018°05'4 8.5
2017-Aug-11 19:59N 59°21' E 018°13'4 3.2
2017-Aug-11 18:41N 59°22' E 018°21'1 5.3
2017-Aug-11 18:25N 59°22' E 018°18'4 9.5
2017-Aug-11 18:00N 59°20' E 018°11'3 5.2
2017-Aug-11 17:20N 59°20' E 018°05'0 0.0
2017-Aug-11 16:56N 59°20' E 018°05'0 0.0
2017-Aug-11 16:26N 59°20' E 018°05'0 0.0
2017-Aug-11 15:56N 59°20' E 018°05'1 3.0
2017-Aug-11 15:30N 59°19' E 018°07'4 7.1
2017-Aug-11 14:58N 59°18' E 018°14'4 0.7
2017-Aug-11 09:00N 59°17' E 018°22'4 8.5
2017-Aug-11 08:30N 59°18' E 018°14'4 6.9
2017-Aug-11 07:59N 59°19' E 018°07'2 3.2
2017-Aug-11 07:30N 59°20' E 018°05'0 0.0
2017-Aug-11 07:00N 59°20' E 018°05'0 0.0
2017-Aug-11 06:30N 59°20' E 018°05'0 0.0
2017-Aug-11 05:54N 59°20' E 018°05'0 0.0
2017-Aug-11 05:30N 59°20' E 018°05'0 0.0
2017-Aug-11 05:00N 59°20' E 018°05'0 0.0
2017-Aug-11 04:30N 59°20' E 018°05'0 0.0
2017-Aug-11 03:54N 59°20' E 018°05'0 0.0
2017-Aug-11 03:30N 59°20' E 018°05'0 0.0
2017-Aug-11 03:00N 59°20' E 018°05'0 0.0
2017-Aug-11 02:30N 59°20' E 018°05'0 0.0
2017-Aug-11 02:00N 59°20' E 018°05'0 0.0
2017-Aug-11 01:30N 59°20' E 018°05'0 0.0
2017-Aug-11 01:00N 59°20' E 018°05'0 0.0
2017-Aug-11 00:30N 59°20' E 018°05'0 0.0
2017-Aug-11 00:00N 59°20' E 018°05'0 0.0
2017-Aug-10 23:30N 59°20' E 018°05'0 0.0
2017-Aug-10 23:00N 59°20' E 018°05'0 0.0
2017-Aug-10 22:30N 59°20' E 018°05'0 0.0
2017-Aug-10 22:00N 59°20' E 018°05'0 0.0
2017-Aug-10 21:30N 59°20' E 018°05'0 0.0
2017-Aug-10 21:00N 59°20' E 018°05'1 1.3
2017-Aug-10 20:27N 59°19' E 018°06'3 7.6
2017-Aug-10 20:00N 59°20' E 018°12'5 4.3
2017-Aug-10 18:47N 59°23' E 018°20'2 5.5
2017-Aug-10 18:27N 59°22' E 018°18'4 9.7
2017-Aug-10 18:00N 59°20' E 018°11'3 6.0
2017-Aug-10 17:30N 59°20' E 018°05'0 0.0
2017-Aug-10 17:00N 59°20' E 018°05'0 0.0
2017-Aug-10 16:18N 59°20' E 018°05'0 0.0
2017-Aug-10 15:54N 59°20' E 018°05'2 5.8
2017-Aug-10 15:30N 59°19' E 018°09'3 6.6
2017-Aug-10 15:00N 59°18' E 018°15'3 0.6
2017-Aug-10 08:59N 59°18' E 018°21'4 7.1
2017-Aug-10 08:22N 59°19' E 018°13'3 8.0
2017-Aug-10 07:59N 59°19' E 018°07'2 2.8
2017-Aug-10 07:23N 59°20' E 018°05'0 0.0
2017-Aug-10 06:59N 59°20' E 018°05'0 0.0
2017-Aug-10 06:29N 59°20' E 018°05'0 0.0
2017-Aug-10 05:53N 59°20' E 018°05'0 0.0
2017-Aug-10 05:29N 59°20' E 018°05'0 0.0
2017-Aug-10 04:53N 59°20' E 018°05'0 0.0
2017-Aug-10 04:29N 59°20' E 018°05'0 0.0
2017-Aug-10 03:59N 59°20' E 018°05'0 0.0
2017-Aug-10 03:29N 59°20' E 018°05'0 0.0
2017-Aug-10 02:59N 59°20' E 018°05'0 0.0
2017-Aug-10 02:29N 59°20' E 018°05'0 0.0
2017-Aug-10 01:59N 59°20' E 018°05'0 0.0
2017-Aug-10 01:29N 59°20' E 018°05'0 0.0
2017-Aug-10 00:53N 59°20' E 018°05'0 0.0
2017-Aug-10 00:29N 59°20' E 018°05'0 0.0
2017-Aug-09 23:59N 59°20' E 018°05'0 0.0
2017-Aug-09 23:29N 59°20' E 018°05'0 0.0
2017-Aug-09 22:59N 59°20' E 018°05'0 0.0
2017-Aug-09 22:29N 59°20' E 018°05'0 0.0
2017-Aug-09 21:59N 59°20' E 018°05'0 0.0
2017-Aug-09 21:29N 59°20' E 018°05'0 0.0
2017-Aug-09 20:59N 59°20' E 018°05'0 0.0
2017-Aug-09 20:30N 59°20' E 018°05'4 7.2
2017-Aug-09 20:00N 59°20' E 018°12'5 9.9
2017-Aug-09 19:30N 59°23' E 018°20'0 0.5
2017-Aug-09 18:45N 59°23' E 018°20'1 4.8
2017-Aug-09 18:27N 59°22' E 018°18'4 9.2
2017-Aug-09 18:01N 59°20' E 018°11'3 6.5
2017-Aug-09 17:30N 59°20' E 018°05'0 0.0
2017-Aug-09 16:54N 59°20' E 018°05'0 0.0
2017-Aug-09 16:30N 59°20' E 018°05'0 0.0
2017-Aug-09 16:00N 59°20' E 018°05'1 2.3
2017-Aug-09 15:30N 59°19' E 018°06'4 7.1
2017-Aug-09 14:59N 59°18' E 018°13'4 7.8
2017-Aug-09 14:30N 59°18' E 018°21'0 0.1
2017-Aug-09 08:59N 59°17' E 018°21'4 8.2
2017-Aug-09 08:30N 59°18' E 018°14'4 7.1
2017-Aug-09 07:59N 59°19' E 018°07'1 2.6
2017-Aug-09 07:27N 59°20' E 018°05'0 0.0
2017-Aug-09 06:57N 59°20' E 018°05'0 0.0
2017-Aug-09 06:21N 59°20' E 018°05'0 0.0
2017-Aug-09 05:51N 59°20' E 018°05'0 0.0
2017-Aug-09 05:27N 59°20' E 018°05'0 0.0
2017-Aug-09 04:57N 59°20' E 018°05'0 0.0
2017-Aug-09 04:27N 59°20' E 018°05'0 0.0
2017-Aug-09 03:57N 59°20' E 018°05'0 0.0
2017-Aug-09 03:27N 59°20' E 018°05'0 0.0
2017-Aug-09 02:57N 59°20' E 018°05'0 0.0
2017-Aug-09 02:27N 59°20' E 018°05'0 0.0
2017-Aug-09 01:57N 59°20' E 018°05'0 0.0
2017-Aug-09 01:27N 59°20' E 018°05'0 0.0
2017-Aug-09 00:57N 59°20' E 018°05'0 0.0
2017-Aug-09 00:27N 59°20' E 018°05'0 0.0
2017-Aug-08 23:57N 59°20' E 018°05'0 0.0
2017-Aug-08 23:27N 59°20' E 018°05'0 0.0
2017-Aug-08 22:57N 59°20' E 018°05'0 0.0
2017-Aug-08 22:27N 59°20' E 018°05'0 0.0
2017-Aug-08 21:57N 59°20' E 018°05'0 0.0
2017-Aug-08 21:27N 59°20' E 018°05'0 0.0
2017-Aug-08 20:57N 59°20' E 018°05'0 0.0
2017-Aug-08 20:27N 59°20' E 018°05'0 0.0
2017-Aug-08 19:57N 59°20' E 018°05'0 0.0
2017-Aug-08 19:27N 59°20' E 018°05'0 0.0
2017-Aug-08 18:57N 59°20' E 018°05'0 0.0
2017-Aug-08 18:27N 59°20' E 018°05'  

Dump ship's entire track history